createdAt,value
2023-01-19T00:01:42.950Z,99716.81
2023-01-19T00:04:11.175Z,99715.84
2023-01-19T00:06:39.514Z,99717.53
2023-01-19T00:09:07.738Z,99728.16
2023-01-19T00:11:36.095Z,99726.53
2023-01-19T00:14:04.441Z,99738.88
2023-01-19T00:16:34.019Z,99738.03
2023-01-19T00:19:02.373Z,99738.75
2023-01-19T00:21:30.570Z,99742.31
2023-01-19T00:23:58.710Z,99744.13
2023-01-19T00:26:26.854Z,99750.16
2023-01-19T00:28:55.013Z,99753.97
2023-01-19T00:31:23.346Z,99755.63
2023-01-19T00:33:53.088Z,99762.72
2023-01-19T00:36:21.525Z,99769.28
2023-01-19T00:38:49.664Z,99773.63
2023-01-19T00:41:18.219Z,99782.91
2023-01-19T00:43:45.487Z,99784.44
2023-01-19T00:46:13.722Z,99780.03
2023-01-19T00:48:41.973Z,99793.25
2023-01-19T00:51:11.464Z,99797.84
2023-01-19T00:53:39.609Z,99810.19
2023-01-19T00:56:08.559Z,99810.59
2023-01-19T00:58:36.709Z,99811.50
2023-01-19T01:01:05.253Z,99819.28
2023-01-19T01:03:34.140Z,99830.69
2023-01-19T01:06:03.660Z,99837.59
2023-01-19T01:08:33.279Z,99843.66
2023-01-19T01:11:01.678Z,99844.59
2023-01-19T01:13:30.150Z,99843.69
2023-01-19T01:15:58.745Z,99847.09
2023-01-19T01:18:27.093Z,99842.09
2023-01-19T01:21:02.238Z,99845.59
2023-01-19T01:23:30.644Z,99853.31
2023-01-19T01:26:00.147Z,99848.09
2023-01-19T01:28:28.290Z,99851.41
2023-01-19T01:30:57.140Z,99846.94
2023-01-19T01:33:40.563Z,99847.19
2023-01-19T01:36:11.164Z,99842.06
2023-01-19T01:38:39.439Z,99844.19
2023-01-19T01:41:09.187Z,99842.56
2023-01-19T01:43:46.753Z,99837.53
2023-01-19T01:46:16.734Z,99842.84
2023-01-19T01:48:50.425Z,99849.63
2023-01-19T01:51:25.439Z,99855.69
2023-01-19T01:54:02.462Z,99848.59
2023-01-19T01:56:37.081Z,99839.22
2023-01-19T01:59:08.433Z,99842.78
2023-01-19T02:01:55.654Z,99839.47
2023-01-19T02:04:24.740Z,99842.25
2023-01-19T02:07:10.753Z,99843.25
2023-01-19T02:09:56.898Z,99850.28
2023-01-19T02:12:44.035Z,99851.94
2023-01-19T02:15:17.404Z,99851.03
2023-01-19T02:17:45.739Z,99850.44
2023-01-19T02:20:14.345Z,99840.00
2023-01-19T02:22:48.691Z,99841.84
2023-01-19T02:25:20.510Z,99848.63
2023-01-19T02:27:50.891Z,99850.53
2023-01-19T02:30:19.382Z,99851.38
2023-01-19T02:32:47.643Z,99848.03
2023-01-19T02:35:16.584Z,99851.56
2023-01-19T02:37:46.072Z,99857.78
2023-01-19T02:40:20.266Z,99859.47
2023-01-19T02:42:51.418Z,99856.03
2023-01-19T02:45:23.138Z,99851.75
2023-01-19T02:47:53.487Z,99849.03
2023-01-19T02:50:43.593Z,99850.59
2023-01-19T02:53:24.068Z,99844.59
2023-01-19T02:55:58.293Z,99846.34
2023-01-19T02:58:37.868Z,99850.03
2023-01-19T03:01:18.217Z,99846.53
2023-01-19T03:03:55.943Z,99841.50
2023-01-19T03:06:36.457Z,99834.50
2023-01-19T03:09:12.414Z,99838.06
2023-01-19T03:11:49.309Z,99838.06
2023-01-19T03:14:22.927Z,99839.03
2023-01-19T03:16:55.941Z,99840.81
2023-01-19T03:19:28.051Z,99849.56
2023-01-19T03:21:59.990Z,99849.56
2023-01-19T03:24:31.833Z,99841.84
2023-01-19T03:27:05.257Z,99836.66
2023-01-19T03:29:35.779Z,99847.03
2023-01-19T03:32:11.463Z,99841.00
2023-01-19T03:34:40.536Z,99842.69
2023-01-19T03:37:11.359Z,99845.97
2023-01-19T03:39:39.598Z,99848.47
2023-01-19T03:42:12.595Z,99840.25
2023-01-19T03:44:42.877Z,99846.19
2023-01-19T03:47:13.026Z,99864.50
2023-01-19T03:49:44.963Z,99861.97
2023-01-19T03:52:14.153Z,99859.84
2023-01-19T03:54:42.373Z,99870.44
2023-01-19T03:57:12.536Z,99870.22
2023-01-19T03:59:40.691Z,99881.66
2023-01-19T04:02:09.031Z,99872.75
2023-01-19T04:04:37.187Z,99878.97
2023-01-19T04:07:05.371Z,99873.09
2023-01-19T04:09:33.611Z,99869.63
2023-01-19T04:12:03.736Z,99876.69
2023-01-19T04:14:33.611Z,99881.50
2023-01-19T04:17:02.130Z,99888.72
2023-01-19T04:19:30.645Z,99888.41
2023-01-19T04:21:58.807Z,99894.19
2023-01-19T04:24:28.007Z,99886.34
2023-01-19T04:26:56.151Z,99880.25
2023-01-19T04:29:24.451Z,99885.75
2023-01-19T04:31:54.128Z,99887.25
2023-01-19T04:34:22.763Z,99881.94
2023-01-19T04:36:51.520Z,99884.75
2023-01-19T04:39:19.715Z,99888.34
2023-01-19T04:41:47.884Z,99881.41
2023-01-19T04:44:16.051Z,99880.66
2023-01-19T04:46:44.262Z,99880.53
2023-01-19T04:49:14.152Z,99880.75
2023-01-19T04:51:42.323Z,99881.31
2023-01-19T04:54:10.599Z,99873.28
2023-01-19T04:56:40.790Z,99880.41
2023-01-19T04:59:08.962Z,99889.44
2023-01-19T05:01:37.265Z,99886.00
2023-01-19T05:04:07.070Z,99878.72
2023-01-19T05:06:37.310Z,99871.78
2023-01-19T05:09:07.870Z,99881.50
2023-01-19T05:11:36.289Z,99871.78
2023-01-19T05:14:04.433Z,99879.88
2023-01-19T05:16:32.582Z,99885.69
2023-01-19T05:19:00.927Z,99877.63
2023-01-19T05:21:29.325Z,99895.28
2023-01-19T05:23:58.793Z,99894.38
2023-01-19T05:26:27.062Z,99895.31
2023-01-19T05:28:55.209Z,99897.56
2023-01-19T05:31:23.774Z,99895.16
2023-01-19T05:33:51.987Z,99901.97
2023-01-19T05:36:20.122Z,99898.56
2023-01-19T05:38:48.290Z,99911.63
2023-01-19T05:41:17.856Z,99905.50
2023-01-19T05:43:46.047Z,99896.38
2023-01-19T05:46:14.247Z,99903.06
2023-01-19T05:48:42.416Z,99897.78
2023-01-19T05:51:10.799Z,99888.25
2023-01-19T05:53:38.949Z,99894.59
2023-01-19T05:56:09.282Z,99889.34
2023-01-19T05:58:40.262Z,99903.69
2023-01-19T06:01:10.441Z,99908.31
2023-01-19T06:03:39.390Z,99905.66
2023-01-19T06:06:08.103Z,99911.91
2023-01-19T06:08:36.809Z,99913.72
2023-01-19T06:11:06.765Z,99911.97
2023-01-19T06:13:35.040Z,99901.47
2023-01-19T06:16:04.727Z,99909.16
2023-01-19T06:18:32.969Z,99907.56
2023-01-19T06:21:04.497Z,99916.19
2023-01-19T06:23:34.440Z,99902.47
2023-01-19T06:26:02.853Z,99905.97
2023-01-19T06:28:31.450Z,99899.97
2023-01-19T06:30:59.683Z,99898.25
2023-01-19T06:33:29.898Z,99906.94
2023-01-19T06:35:58.112Z,99899.78
2023-01-19T06:38:26.360Z,99906.09
2023-01-19T06:40:58.420Z,99911.47
2023-01-19T06:43:27.419Z,99908.69
2023-01-19T06:45:56.956Z,99904.28
2023-01-19T06:48:25.300Z,99914.97
2023-01-19T06:50:54.802Z,99913.13
2023-01-19T06:53:23.272Z,99918.72
2023-01-19T06:55:51.456Z,99911.06
2023-01-19T06:58:20.111Z,99927.47
2023-01-19T07:00:48.976Z,99923.97
2023-01-19T07:03:21.437Z,99929.34
2023-01-19T07:05:52.708Z,99929.63
2023-01-19T07:08:22.210Z,99930.28
2023-01-19T07:11:25.421Z,99938.97
2023-01-19T07:13:40.743Z,99945.59
2023-01-19T07:16:11.956Z,99953.38
2023-01-19T07:18:41.437Z,99954.97
2023-01-19T07:21:09.792Z,99961.25
2023-01-19T07:23:39.291Z,99958.41
2023-01-19T07:26:07.666Z,99956.84
2023-01-19T07:28:37.017Z,99957.81
2023-01-19T07:31:05.373Z,99952.56
2023-01-19T07:33:33.620Z,99958.66
2023-01-19T07:36:01.789Z,99957.69
2023-01-19T07:38:29.988Z,99969.81
2023-01-19T07:41:02.888Z,99967.22
2023-01-19T07:43:31.275Z,99960.47
2023-01-19T07:46:00.539Z,99963.84
2023-01-19T07:48:29.360Z,99963.69
2023-01-19T07:51:00.908Z,99961.00
2023-01-19T07:53:29.490Z,99968.72
2023-01-19T07:55:58.235Z,99972.66
2023-01-19T07:58:28.178Z,99968.44
2023-01-19T08:00:57.748Z,99976.09
2023-01-19T08:03:25.962Z,99979.53
2023-01-19T08:05:54.602Z,99979.59
2023-01-19T08:08:22.760Z,99980.31
2023-01-19T08:10:51.684Z,99975.03
2023-01-19T08:13:20.026Z,99981.78
2023-01-19T08:15:52.271Z,99987.09
2023-01-19T08:18:21.119Z,99994.69
2023-01-19T08:20:49.593Z,99992.13
2023-01-19T08:23:18.186Z,99986.78
2023-01-19T08:25:46.899Z,99984.91
2023-01-19T08:28:17.110Z,99988.97
2023-01-19T08:30:45.882Z,99993.34
2023-01-19T08:33:15.484Z,99995.06
2023-01-19T08:35:47.885Z,99998.31
2023-01-19T08:38:17.167Z,99998.19
2023-01-19T08:40:45.551Z,100009.13
2023-01-19T08:43:15.747Z,100011.81
2023-01-19T08:45:48.191Z,100011.50
2023-01-19T08:48:19.584Z,100007.03
2023-01-19T08:50:47.972Z,100012.22
2023-01-19T08:53:17.088Z,100008.50
2023-01-19T08:55:45.672Z,100015.41
2023-01-19T08:58:13.943Z,100008.72
2023-01-19T09:00:42.707Z,100014.63
2023-01-19T09:03:13.380Z,100018.34
2023-01-19T09:05:43.034Z,100021.59
2023-01-19T09:08:14.289Z,100019.63
2023-01-19T09:10:46.533Z,100016.53
2023-01-19T09:13:15.932Z,100016.84
2023-01-19T09:15:44.263Z,100011.13
2023-01-19T09:18:15.489Z,100017.94
2023-01-19T09:20:46.460Z,100021.72
2023-01-19T09:23:16.241Z,100019.16
2023-01-19T09:25:45.783Z,100010.16
2023-01-19T09:28:16.599Z,100012.31
2023-01-19T09:30:45.824Z,100017.53
2023-01-19T09:33:15.855Z,100008.41
2023-01-19T09:35:46.594Z,100021.09
2023-01-19T09:38:18.378Z,100011.41
2023-01-19T09:40:50.646Z,100013.84
2023-01-19T09:43:28.657Z,100014.91
2023-01-19T09:45:59.928Z,100018.97
2023-01-19T09:48:40.177Z,100018.22
2023-01-19T09:51:15.758Z,100014.31
2023-01-19T09:53:56.561Z,100013.78
2023-01-19T09:56:25.662Z,100019.56
2023-01-19T09:58:54.059Z,100010.44
2023-01-19T10:01:35.623Z,100021.56
2023-01-19T10:04:20.075Z,100018.63
2023-01-19T10:06:50.551Z,100014.69
2023-01-19T10:09:25.770Z,100017.06
2023-01-19T10:12:02.313Z,100018.16
2023-01-19T10:14:36.309Z,100017.59
2023-01-19T10:17:20.003Z,100022.09
2023-01-19T10:19:53.211Z,100004.66
2023-01-19T10:22:24.986Z,100009.53
2023-01-19T10:24:56.667Z,100003.22
2023-01-19T10:27:29.348Z,99998.94
2023-01-19T10:29:58.582Z,100003.22
2023-01-19T10:32:30.406Z,99998.69
2023-01-19T10:35:00.038Z,99990.13
2023-01-19T10:37:33.993Z,99999.53
2023-01-19T10:40:19.877Z,99985.34
2023-01-19T10:42:48.147Z,99989.72
2023-01-19T10:45:17.734Z,99989.22
2023-01-19T10:47:47.530Z,99990.13
2023-01-19T10:50:25.483Z,99989.94
2023-01-19T10:52:57.098Z,99994.16
2023-01-19T10:55:28.952Z,100000.88
2023-01-19T10:57:58.349Z,99988.66
2023-01-19T11:00:36.553Z,99990.59
2023-01-19T11:03:06.689Z,99993.97
2023-01-19T11:05:35.313Z,99994.16
2023-01-19T11:08:23.462Z,99997.13
2023-01-19T11:10:55.073Z,99997.63
2023-01-19T11:13:23.271Z,99991.34
2023-01-19T11:15:55.139Z,99986.16
2023-01-19T11:18:28.359Z,99985.41
2023-01-19T11:20:59.024Z,99993.91
2023-01-19T11:23:32.181Z,99986.38
2023-01-19T11:26:02.467Z,99991.97
2023-01-19T11:28:34.922Z,99991.81
2023-01-19T11:31:17.325Z,99978.91
2023-01-19T11:33:51.001Z,99977.31
2023-01-19T11:36:21.715Z,99983.94
2023-01-19T11:38:53.361Z,99973.53
2023-01-19T11:41:23.251Z,99969.75
2023-01-19T11:43:54.443Z,99981.34
2023-01-19T11:46:25.206Z,99982.38
2023-01-19T11:49:01.909Z,99979.00
2023-01-19T11:51:36.180Z,99982.88
2023-01-19T11:54:18.765Z,99978.16
2023-01-19T11:56:49.341Z,99983.91
2023-01-19T11:59:17.739Z,99981.19
2023-01-19T12:01:50.748Z,99968.16
2023-01-19T12:04:27.571Z,99968.66
2023-01-19T12:06:57.817Z,99976.13
2023-01-19T12:09:30.773Z,99976.84
2023-01-19T12:12:04.162Z,99966.19
2023-01-19T12:14:39.142Z,99963.16
2023-01-19T12:17:14.652Z,99972.06
2023-01-19T12:19:47.200Z,99961.47
2023-01-19T12:22:18.146Z,99953.06
2023-01-19T12:24:55.599Z,99966.75
2023-01-19T12:27:38.841Z,99962.28
2023-01-19T12:30:17.112Z,99961.16
2023-01-19T12:32:45.390Z,99964.56
2023-01-19T12:35:51.326Z,99967.47
2023-01-19T12:38:41.013Z,99964.59
2023-01-19T12:41:29.717Z,99975.66
2023-01-19T12:44:34.136Z,99976.31
2023-01-19T12:47:20.170Z,99978.44
2023-01-19T12:49:50.750Z,99979.84
2023-01-19T12:52:24.948Z,99994.22
2023-01-19T12:55:01.467Z,99991.91
2023-01-19T12:57:36.712Z,99995.69
2023-01-19T13:00:09.324Z,99995.25
2023-01-19T13:02:47.295Z,99980.22
2023-01-19T13:05:25.068Z,99986.97
2023-01-19T13:08:16.044Z,99999.50
2023-01-19T13:11:14.210Z,99985.41
2023-01-19T13:13:46.321Z,100004.44
2023-01-19T13:17:02.236Z,100004.22
2023-01-19T13:19:48.981Z,100005.13
2023-01-19T13:23:03.526Z,99999.06
2023-01-19T13:25:35.725Z,99993.56
2023-01-19T13:28:10.196Z,99996.78
2023-01-19T13:30:55.758Z,99986.69
2023-01-19T13:33:26.171Z,99999.31
2023-01-19T13:35:58.615Z,100006.63
2023-01-19T13:38:28.882Z,100000.25
2023-01-19T13:40:59.857Z,100014.81
2023-01-19T13:43:32.335Z,100016.75
2023-01-19T13:46:03.574Z,100012.03
2023-01-19T13:48:33.202Z,100004.53
2023-01-19T13:51:04.163Z,100005.88
2023-01-19T13:53:34.154Z,100011.94
2023-01-19T13:56:24.503Z,100024.28
2023-01-19T13:59:11.638Z,100013.34
2023-01-19T14:01:44.999Z,100015.19
2023-01-19T14:04:27.508Z,100018.50
2023-01-19T14:06:58.372Z,100023.47
2023-01-19T14:09:26.577Z,100024.34
2023-01-19T14:12:21.873Z,100020.84
2023-01-19T14:14:50.243Z,100023.09
2023-01-19T14:17:25.136Z,100028.13
2023-01-19T14:19:54.705Z,100026.56
2023-01-19T14:22:37.465Z,100018.59
2023-01-19T14:25:28.435Z,100017.38
2023-01-19T14:28:29.256Z,100018.22
2023-01-19T14:31:00.225Z,100017.47
2023-01-19T14:33:43.562Z,100018.56
2023-01-19T14:36:27.619Z,100031.59
2023-01-19T14:38:59.443Z,100023.00
2023-01-19T14:41:31.287Z,100028.53
2023-01-19T14:44:00.849Z,100026.25
2023-01-19T14:46:29.254Z,100029.59
2023-01-19T14:49:03.120Z,100027.66
2023-01-19T14:51:32.521Z,100024.31
2023-01-19T14:54:03.883Z,100032.28
2023-01-19T14:56:34.071Z,100032.94
2023-01-19T14:59:03.378Z,100030.34
2023-01-19T15:01:31.982Z,100035.59
2023-01-19T15:04:01.920Z,100032.25
2023-01-19T15:06:30.211Z,100026.34
2023-01-19T15:08:58.992Z,100037.13
2023-01-19T15:11:31.026Z,100035.22
2023-01-19T15:13:59.979Z,100036.34
2023-01-19T15:16:29.920Z,100038.88
2023-01-19T15:18:58.286Z,100038.81
2023-01-19T15:21:27.803Z,100039.78
2023-01-19T15:23:58.229Z,100040.72
2023-01-19T15:26:27.607Z,100043.72
2023-01-19T15:28:57.258Z,100043.22
2023-01-19T15:31:27.617Z,100050.13
2023-01-19T15:33:56.055Z,100047.47
2023-01-19T15:36:25.164Z,100052.38
2023-01-19T15:38:57.076Z,100058.63
2023-01-19T15:41:29.752Z,100066.53
2023-01-19T15:43:58.080Z,100066.66
2023-01-19T15:46:26.859Z,100066.22
2023-01-19T15:48:55.205Z,100067.50
2023-01-19T15:51:26.082Z,100076.25
2023-01-19T15:53:56.661Z,100078.13
2023-01-19T15:56:26.871Z,100089.50
2023-01-19T15:58:56.096Z,100086.06
2023-01-19T16:01:31.253Z,100084.59
2023-01-19T16:04:01.763Z,100088.91
2023-01-19T16:06:30.080Z,100086.97
2023-01-19T16:09:01.367Z,100085.25
2023-01-19T16:11:31.475Z,100085.34
2023-01-19T16:13:59.740Z,100081.91
2023-01-19T16:16:28.979Z,100083.69
2023-01-19T16:18:57.667Z,100087.47
2023-01-19T16:21:26.714Z,100090.47
2023-01-19T16:23:55.561Z,100086.53
2023-01-19T16:26:27.885Z,100089.53
2023-01-19T16:29:00.897Z,100086.03
2023-01-19T16:31:30.178Z,100084.97
2023-01-19T16:33:58.322Z,100089.34
2023-01-19T16:36:28.406Z,100088.53
2023-01-19T16:38:59.837Z,100100.25
2023-01-19T16:41:29.646Z,100079.97
2023-01-19T16:43:59.381Z,100074.88
2023-01-19T16:46:29.847Z,100082.66
2023-01-19T16:49:00.794Z,100084.16
2023-01-19T16:51:29.521Z,100089.97
2023-01-19T16:53:57.843Z,100097.25
2023-01-19T16:56:26.187Z,100093.28
2023-01-19T16:58:56.520Z,100093.69
2023-01-19T17:01:27.542Z,100091.88
2023-01-19T17:03:56.210Z,100086.50
2023-01-19T17:06:25.000Z,100084.75
2023-01-19T17:08:53.702Z,100070.06
2023-01-19T17:11:24.727Z,100075.38
2023-01-19T17:13:56.707Z,100072.38
2023-01-19T17:16:26.242Z,100077.59
2023-01-19T17:18:54.988Z,100081.34
2023-01-19T17:21:23.488Z,100080.06
2023-01-19T17:23:54.078Z,100080.97
2023-01-19T17:26:22.744Z,100088.78
2023-01-19T17:28:50.890Z,100087.69
2023-01-19T17:31:22.556Z,100084.22
2023-01-19T17:33:52.070Z,100102.41
2023-01-19T17:36:22.645Z,100105.84
2023-01-19T17:38:51.032Z,100102.34
2023-01-19T17:41:21.182Z,100100.00
2023-01-19T17:43:50.285Z,100104.41
2023-01-19T17:46:21.420Z,100103.75
2023-01-19T17:48:52.535Z,100103.63
2023-01-19T17:51:22.831Z,100105.22
2023-01-19T17:53:52.652Z,100105.34
2023-01-19T17:56:23.009Z,100113.84
2023-01-19T17:58:51.192Z,100118.88
2023-01-19T18:01:22.569Z,100121.75
2023-01-19T18:03:50.872Z,100125.94
2023-01-19T18:06:19.279Z,100120.88
2023-01-19T18:08:48.739Z,100122.59
2023-01-19T18:11:19.095Z,100130.22
2023-01-19T18:13:49.072Z,100134.00
2023-01-19T18:16:21.415Z,100137.72
2023-01-19T18:18:50.585Z,100135.03
2023-01-19T18:21:20.269Z,100140.31
2023-01-19T18:23:49.027Z,100127.47
2023-01-19T18:26:19.211Z,100132.69
2023-01-19T18:28:47.882Z,100142.25
2023-01-19T18:31:19.130Z,100150.22
2023-01-19T18:33:49.641Z,100157.31
2023-01-19T18:36:18.399Z,100147.63
2023-01-19T18:38:47.072Z,100150.03
2023-01-19T18:41:16.893Z,100152.56
2023-01-19T18:43:46.607Z,100152.25
2023-01-19T18:46:15.837Z,100154.63
2023-01-19T18:48:44.055Z,100154.34
2023-01-19T18:51:15.693Z,100152.66
2023-01-19T18:53:44.546Z,100154.34
2023-01-19T18:56:13.956Z,100152.69
2023-01-19T18:58:42.823Z,100157.66
2023-01-19T19:01:25.876Z,100162.78
2023-01-19T19:03:55.833Z,100161.94
2023-01-19T19:06:27.090Z,100170.22
2023-01-19T19:08:57.147Z,100161.75
2023-01-19T19:11:26.615Z,100163.59
2023-01-19T19:13:56.485Z,100167.06
2023-01-19T19:16:24.785Z,100173.50
2023-01-19T19:18:53.017Z,100172.16
2023-01-19T19:21:23.999Z,100178.47
2023-01-19T19:23:54.772Z,100175.22
2023-01-19T19:26:23.997Z,100185.53
2023-01-19T19:28:52.230Z,100181.38
2023-01-19T19:31:23.107Z,100176.34
2023-01-19T19:33:51.786Z,100180.91
2023-01-19T19:36:21.158Z,100195.47
2023-01-19T19:38:49.589Z,100192.09
2023-01-19T19:41:22.089Z,100190.44
2023-01-19T19:43:50.671Z,100192.03
2023-01-19T19:46:20.849Z,100202.31
2023-01-19T19:48:49.742Z,100199.63
2023-01-19T19:51:22.548Z,100197.31
2023-01-19T19:53:52.536Z,100196.38
2023-01-19T19:56:23.704Z,100201.59
2023-01-19T19:58:52.725Z,100208.53
2023-01-19T20:01:25.939Z,100206.09
2023-01-19T20:03:55.649Z,100217.31
2023-01-19T20:06:25.258Z,100220.28
2023-01-19T20:08:55.207Z,100222.44
2023-01-19T20:11:28.254Z,100236.03
2023-01-19T20:13:56.560Z,100224.56
2023-01-19T20:16:25.586Z,100238.47
2023-01-19T20:18:55.103Z,100243.66
2023-01-19T20:21:25.718Z,100245.28
2023-01-19T20:23:55.215Z,100241.91
2023-01-19T20:26:27.521Z,100246.34
2023-01-19T20:28:59.568Z,100252.28
2023-01-19T20:31:30.444Z,100253.19
2023-01-19T20:34:01.302Z,100247.88
2023-01-19T20:36:29.608Z,100257.50
2023-01-19T20:38:58.163Z,100262.84
2023-01-19T20:41:28.036Z,100252.22
2023-01-19T20:43:56.241Z,100260.78
2023-01-19T20:46:24.823Z,100259.09
2023-01-19T20:48:54.676Z,100263.47
2023-01-19T20:51:23.109Z,100264.25
2023-01-19T20:53:51.283Z,100263.34
2023-01-19T20:56:19.582Z,100269.66
2023-01-19T20:58:49.048Z,100265.13
2023-01-19T21:01:19.637Z,100277.28
2023-01-19T21:03:48.121Z,100272.09
2023-01-19T21:06:17.029Z,100283.34
2023-01-19T21:08:46.456Z,100285.00
2023-01-19T21:11:14.611Z,100284.94
2023-01-19T21:13:42.855Z,100282.34
2023-01-19T21:16:12.909Z,100284.06
2023-01-19T21:18:41.166Z,100280.91
2023-01-19T21:21:20.778Z,100278.13
2023-01-19T21:23:53.780Z,100290.91
2023-01-19T21:26:22.242Z,100296.31
2023-01-19T21:28:50.928Z,100293.34
2023-01-19T21:31:22.604Z,100302.38
2023-01-19T21:33:53.547Z,100302.28
2023-01-19T21:36:24.633Z,100308.44
2023-01-19T21:38:52.992Z,100317.91
2023-01-19T21:41:21.435Z,100312.59
2023-01-19T21:43:49.619Z,100304.94
2023-01-19T21:46:21.631Z,100303.72
2023-01-19T21:48:49.967Z,100305.66
2023-01-19T21:51:18.187Z,100317.28
2023-01-19T21:53:46.803Z,100317.09
2023-01-19T21:56:16.771Z,100321.56
2023-01-19T21:58:46.275Z,100329.06
2023-01-19T22:01:14.938Z,100334.22
2023-01-19T22:03:44.688Z,100334.22
2023-01-19T22:06:15.946Z,100337.25
2023-01-19T22:08:46.433Z,100330.53
2023-01-19T22:11:16.853Z,100343.50
2023-01-19T22:13:45.676Z,100346.97
2023-01-19T22:16:17.039Z,100350.31
2023-01-19T22:18:50.163Z,100339.34
2023-01-19T22:21:20.080Z,100348.16
2023-01-19T22:23:49.683Z,100349.81
2023-01-19T22:26:17.871Z,100354.28
2023-01-19T22:28:46.379Z,100356.56
2023-01-19T22:31:16.409Z,100354.75
2023-01-19T22:33:46.194Z,100364.09
2023-01-19T22:36:16.607Z,100352.81
2023-01-19T22:38:45.491Z,100356.19
2023-01-19T22:41:16.129Z,100363.72
2023-01-19T22:43:45.189Z,100349.09
2023-01-19T22:46:13.410Z,100353.56
2023-01-19T22:48:41.644Z,100363.22
2023-01-19T22:51:11.575Z,100356.00
2023-01-19T22:53:40.343Z,100353.88
2023-01-19T22:56:13.255Z,100353.88
2023-01-19T22:58:44.131Z,100353.84
2023-01-19T23:01:13.637Z,100360.03
2023-01-19T23:03:42.780Z,100365.16
2023-01-19T23:06:14.421Z,100358.13
2023-01-19T23:08:43.465Z,100365.16
2023-01-19T23:11:14.101Z,100361.69
2023-01-19T23:13:42.325Z,100372.03
2023-01-19T23:16:11.579Z,100373.94
2023-01-19T23:18:40.186Z,100373.06
2023-01-19T23:21:10.349Z,100380.81
2023-01-19T23:23:40.051Z,100375.34
2023-01-19T23:26:10.540Z,100373.59
2023-01-19T23:28:39.562Z,100390.78
2023-01-19T23:31:15.435Z,100384.75
2023-01-19T23:33:44.315Z,100390.13
2023-01-19T23:36:13.110Z,100390.03
2023-01-19T23:38:42.923Z,100388.38
2023-01-19T23:41:11.175Z,100393.41
2023-01-19T23:43:39.382Z,100393.19
2023-01-19T23:46:09.566Z,100387.78
2023-01-19T23:48:38.403Z,100382.81
2023-01-19T23:51:07.644Z,100391.59
2023-01-19T23:53:36.251Z,100398.31
2023-01-19T23:56:17.409Z,100380.78
2023-01-19T23:58:46.354Z,100385.88
